Tiempo atmosférico en la estación meteorológica de Arroyo Del Ojanco, Jaén (580 m.)



Fecha
DESCASC
Temp. máxima en grados centígrados (hora)
DESCASC
Temp. mínima en grados centígrados (hora)
DESCASC
Temp. media en grados centígrados
DESCASC
Racha de viento máxima en m/sg (hora)
DESCASC
Velocidad máxima media en intervalos de 10 minutos(hora)
DESCASC
Precipitaciones diarias en mm
DESCASC
Precipitaciones de 00:00 a 06:00 en mm
DESCASC
Precipitaciones de 06:00 a 12:00 en mm
DESCASC
Precipitaciones de 12:00 a 18:00 en mm
DESCASC
Precipitaciones de 18:00 a 24:00 en mm
DESCASC
16-06-2019 30.3 (17:20) 15.9 (06:50) 23.1 6.67 (15:40) 3.61 (23:20) 0 0 0 0 0
15-06-2019 28.9 (18:10) 13.7 (07:30) 21.3 7.5 (16:20) 4.44 (00:10) 0 0 0 0 0
14-06-2019 25.3 (17:40) 17.8 (08:10) 21.5 10.83 (15:40) 6.39 (02:20) 0 0 0 0 0
13-06-2019 29.2 (18:10) 15.9 (00:00) 22.6 7.78 (15:00) 4.44 (23:50) 0 0 0 0 0
12-06-2019 27.4 (18:50) 14.5 (00:00) 20.9 8.89 (15:40) 5 (16:00) 0 0 0 0 0
11-06-2019 26.3 (17:00) 14.3 (00:00) 20.3 10.56 (20:00) 6.39 (20:00) 0 0 0 0 0
10-06-2019 27 (17:50) 14.7 (00:00) 20.8 7.78 (17:30) 4.72 (20:20) 0 0 0 0 0
09-06-2019 27.4 (16:40) 18.2 (00:00) 22.8 11.39 (18:10) 5.28 (18:10) 0 0 0 0 0
08-06-2019 31.4 (17:30) 13.5 (00:00) 22.4 8.61 (19:40) 4.72 (19:40) 0 0 0 0 0
07-06-2019 25.3 (19:40) 14.2 (00:00) 19.7 10 (01:20) 6.67 (01:20) 0 0 0 0 0
06-06-2019 27.5 (17:00) 10.4 (00:00) 18.9 11.11 (17:20) 5.56 (18:00) 0 0 0 0 0
05-06-2019 23.6 (00:00) 15.6 (00:00) 19.6 12.78 (09:10) 7.22 (09:10) 0 0 0 0 0
04-06-2019 31 (17:20) 19.8 (00:00) 25.4 15 (23:50) 6.11 (18:40) 0 0 0 0 0
03-06-2019 34.1 (18:10) 18.2 (00:00) 26.1 8.33 (18:10) 4.44 (18:40) 0 0 0 0 0
02-06-2019 35.6 (18:40) 17.2 (00:00) 26.4 6.94 (21:30) 4.17 (22:10) 0 0 0 0 0
01-06-2019 31.9 (16:20) 16.7 (00:00) 24.3 9.44 (14:20) 5.56 (19:10) 0 0 0 0 0
31-05-2019 31.2 (14:40) 15.9 (00:00) 23.6 10 (19:10) 6.39 (19:10) 0 0 0 0 0
30-05-2019 30 (16:00) 16.5 (00:00) 23.3 8.89 (18:10) 5.83 (20:00) 0 0 0 0 0
29-05-2019 28.8 (17:20) 14.8 (00:00) 21.8 8.89 (16:50) 4.72 (16:50) 0 0 0 0 0
28-05-2019 32.4 (17:10) 15.9 (00:00) 24.2 8.61 (23:00) 4.72 (19:30) 0 0 0 0 0
27-05-2019 32.5 (17:50) 13.8 (00:00) 23.2 9.17 (17:30) 4.44 (23:30) 0 0 0 0 0
26-05-2019 28.7 (16:50) 14 (00:00) 21.4 9.17 (18:40) 5 (18:40) 0 0 0 0 0
25-05-2019 26.7 (15:50) 13.2 (00:00) 20 9.17 (16:00) 5 (11:10) 0 0 0 0 0
24-05-2019 29.5 (17:00) 17 (00:00) 23.3 7.5 (18:40) 4.72 (18:50) 0 0 0 0 0
23-05-2019 32.7 (20:00) 16.9 (00:00) 24.8 8.06 (18:20) 4.17 (17:10) 0 0 0 0 0
22-05-2019 31.9 (18:00) 14.1 (00:00) 23 5.56 (15:50) 2.78 (15:50) 0 0 0 0 0

Gráficas

Temp. máximas Temp. mínimas Temp. medias Precipitaciones Rachas de viento máximas Velocidades máximas media en intervalos de 10 minutos

Datos horarios

Fecha y hora oficial Temperatura (ºC) Velocidad del viento (km/h) Dirección del viento Racha (km/h) Dirección de racha Precipitación (mm) Presión (hPa) Tendencia (hPa) Humedad (%)
2019-06-20 23:00:00 24.4 12 Sudoeste 18 Sur 0 942 1.4 47
2019-06-20 22:00:00 25.5 13 Sudoeste 29 Sudoeste 0 941.1 0.8 46
2019-06-20 21:00:00 27.1 17 Sudoeste 33 Sudoeste 0 940.4 0.1 44
2019-06-20 20:00:00 28.2 20 Sudoeste 31 Sudoeste 0 940.6 0.2 42
2019-06-20 19:00:00 29.2 19 Sudoeste 37 Sudoeste 0 940.3 -0.5 42
2019-06-20 18:00:00 30.2 11 Oeste 34 Oeste 0 940.3 -1.1 41
2019-06-20 17:00:00 30.4 17 Oeste 30 Sudoeste 0 940.4 -1.4 39
2019-06-20 16:00:00 29.5 16 Sudoeste 30 Sudoeste 0 940.8 -1.5 40
2019-06-20 15:00:00 28.2 10 Oeste 23 Oeste 0 941.4 -1 45
2019-06-20 14:00:00 26.9 12 Oeste 23 Oeste 0 941.8 -0.4 55
2019-06-20 13:00:00 25.1 10 Oeste 19 Oeste 0 942.3 -0.2 64
2019-06-20 12:00:00 24.1 7 Noroeste 14 Oeste 0 942.4 0 67
2019-06-20 11:00:00 22.9 4 Sudoeste 12 Oeste 0 942.2 0.2 72
2019-06-20 10:00:00 21.3 7 Noroeste 13 Oeste 0 942.5 0.5 74
2019-06-20 09:00:00 20.8 4 Oeste 8 Oeste 0 942.4 0.4 74
2019-06-20 08:00:00 19.9 0 Calma 5 Norte 0 942 -0.3 76
2019-06-20 07:00:00 18.9 2 Sudoeste 13 Sur 0 942 -0.5 74
2019-06-20 06:00:00 19.5 9 Sur 16 Sur 0 942 -0.8 73
2019-06-20 05:00:00 21.1 5 Sur 15 Sudoeste 0 942.3 -0.5 64
2019-06-20 04:00:00 21.5 8 Sudoeste 18 Sudoeste 0 942.5 -0.7 61
2019-06-20 03:00:00 21.8 8 Sudoeste 15 Sur 0 942.8 -0.3 51
2019-06-20 02:00:00 21.4 6 Nordeste 18 Sur 0 942.8 0.2 48
2019-06-20 01:00:00 23.9 12 Sur 19 Sur 0 943.2 0.8 46
2019-06-20 00:00:00 25.3 10 Sur 15 Sur 0 943.1 0.8 44
2019-06-19 23:00:00 25.5 8 Sur 16 Sudoeste 0 942.6 0.3 43
2019-06-19 22:00:00 26 12 Sur 20 Sudoeste 0 942.4 0 40
2019-06-19 21:00:00 27.6 13 Sudoeste 25 Sudoeste 0 942.3 -0.4 38
2019-06-19 20:00:00 29 14 Sudoeste 25 Sudoeste 0 942.3 -0.5 38
2019-06-19 19:00:00 29.2 17 Sudoeste 29 Sudoeste 0 942.4 -0.9 36
2019-06-19 18:00:00 29.5 12 Sudoeste 32 Sudoeste 0 942.7 -1 38
2019-06-19 17:00:00 28.8 14 Sudoeste 27 Sudoeste 0 942.8 -1.4 42
2019-06-19 16:00:00 28.5 13 Oeste 24 Sudoeste 0 943.3 -0.9 47
2019-06-19 15:00:00 27.1 13 Sudoeste 26 Sudoeste 0 943.7 -0.5 47
2019-06-19 14:00:00 25.7 13 Sudoeste 25 Sudoeste 0 944.2 -0.2 58
2019-06-19 13:00:00 24.2 11 Sudoeste 24 Oeste 0 944.2 -0.1 65
2019-06-19 12:00:00 23.1 9 Oeste 22 Oeste 0 944.2 0.1 70
2019-06-19 11:00:00 21.6 8 Oeste 19 Oeste 0 944.4 0.6 73
2019-06-19 10:00:00 20.6 8 Oeste 16 Sudoeste 0 944.3 0.5 77
2019-06-19 09:00:00 20.1 7 Oeste 13 Oeste 0 944.1 0.5 79
2019-06-19 08:00:00 21.1 0 Calma 10 Sudoeste 0 943.8 0.3 77
2019-06-19 07:00:00 19.4 6 Sudoeste 12 Sudoeste 0 943.8 0.3 76
2019-06-19 06:00:00 20.5 4 Sur 18 Sur 0 943.6 -0.2 71
2019-06-19 05:00:00 19.8 12 Sur 19 Sur 0 943.5 -0.4 69
2019-06-19 04:00:00 20.4 12 Sudoeste 18 Sur 0 943.5 -0.8 64
2019-06-19 03:00:00 22 7 Sur 20 Sudoeste 0 943.8 -0.6 61
2019-06-19 02:00:00 22 13 Sur 22 Sur 0 943.9 0 57
2019-06-19 01:00:00 23.4 13 Sur 20 Sur 0 944.3 0.9 48
2019-06-19 00:00:00 24.5 13 Sur 20 Sur 0 944.4 1.2 43
2019-06-18 23:00:00 24.6 14 Sudoeste 22 Sudoeste 0 943.9 0.9 41
2019-06-18 22:00:00 25.5 15 Sudoeste 26 Sudoeste 0 943.4 0.8 41
2019-06-18 21:00:00 27.8 14 Sudoeste 27 Oeste 0 943.2 0.6 40
2019-06-18 20:00:00 29.1 15 Sudoeste 28 Oeste 0 943 0.5 39
2019-06-18 19:00:00 29.6 17 Oeste 30 Sudoeste 0 942.6 0 40
2019-06-18 18:00:00 30.4 16 Oeste 39 Oeste 0 942.6 -0.4 39
2019-06-18 17:00:00 30.7 17 Oeste 36 Oeste 0 942.5 -1 37
2019-06-18 16:00:00 30.6 18 Oeste 37 Oeste 0 942.6 -1 37
2019-06-18 15:00:00 30.5 16 Oeste 34 Oeste 0 943 -0.8 38
2019-06-18 14:00:00 29.6 15 Oeste 31 Oeste 0 943.5 0 40
2019-06-18 13:00:00 28.2 9 Oeste 21 Oeste 0 943.6 -0.4 46
2019-06-18 12:00:00 26 9 Oeste 18 Oeste 0 943.8 0 52
2019-06-18 11:00:00 25 4 Oeste 11 Oeste 0 943.5 0.2 55
2019-06-18 10:00:00 23.9 5 Noroeste 9 Oeste 0 944 1 56
2019-06-18 09:00:00 23.7 0 Calma -- -- 0 943.8 0.5 58
2019-06-18 08:00:00 20 0 Calma 4 Nordeste 0 943.3 -0.1 59
2019-06-18 07:00:00 19.1 3 Nordeste 6 Nordeste 0 943 -0.4 57
2019-06-18 06:00:00 20.5 4 Nordeste 11 Sudoeste 0 943.3 -0.5 53
2019-06-18 05:00:00 22.9 6 Sur 17 Sudeste 0 943.4 -0.5 51
2019-06-18 04:00:00 23.4 10 Sur 17 Sudoeste 0 943.4 -0.5 49
2019-06-18 03:00:00 24.1 6 Sudoeste 25 Sudoeste 0 943.8 0.1 46
2019-06-18 02:00:00 24.4 13 Sudoeste 27 Sudoeste 0 943.9 0.6 43
2019-06-18 01:00:00 25.8 6 Sur 17 Sur 0 943.9 1.1 41
2019-06-18 00:00:00 27.2 9 Sur 19 Sur 0 943.7 1.2 40
2019-06-17 23:00:00 28 13 Sur 18 Sur 0 943.3 1.1 40
2019-06-17 22:00:00 28.4 10 Sur 19 Sudoeste 0 942.8 0.7 39
2019-06-17 21:00:00 29.9 13 Sudoeste 22 Oeste 0 942.5 0 37
2019-06-17 20:00:00 31.5 12 Oeste 25 Oeste 0 942.2 -0.7 35
2019-06-17 19:00:00 31.8 14 Oeste 27 Oeste 0 942.1 -1.2 35
2019-06-17 18:00:00 32.3 11 Oeste 27 Oeste 0 942.5 -1.5 35
2019-06-17 17:00:00 32.1 11 Oeste 24 Oeste 0 942.9 -1.9 37
2019-06-17 16:00:00 31.2 12 Oeste 27 Sudoeste 0 943.3 -1.8 38
2019-06-17 15:00:00 30.1 10 Oeste 24 Sudoeste 0 944 -1.5 42
2019-06-17 14:00:00 29 7 Oeste 17 Oeste 0 944.8 -1.2 44
2019-06-17 13:00:00 27.5 4 Sudoeste 11 Sur 0 945.1 -0.9 47
2019-06-17 12:00:00 24.9 5 Nordeste 13 Oeste 0 945.5 -0.5 50
2019-06-17 11:00:00 23.8 3 Oeste 13 Oeste 0 946 0.5 54
2019-06-17 10:00:00 22.5 2 Noroeste 9 Norte 0 946 0.6 56
2019-06-17 09:00:00 19.6 6 Nordeste 9 Nordeste 0 946 0.5 58
2019-06-17 08:00:00 19.3 0 Calma -- -- 0 945.5 -0.2 60
2019-06-17 07:00:00 18.1 0 Calma 6 Este 0 945.4 -0.6 58
2019-06-17 06:00:00 19.9 3 Sudoeste 15 Sur 0 945.5 -0.6 54
2019-06-17 05:00:00 21 9 Sur 17 Sudoeste 0 945.7 -0.1 54
2019-06-17 04:00:00 20.9 11 Sudoeste 17 Sur 0 946 0.1 52
2019-06-17 03:00:00 22.1 5 Sudoeste 13 Sudoeste 0 946.1 0.1 46
2019-06-17 02:00:00 20.6 0 Calma 6 Nordeste 0 945.8 0.1 44
2019-06-17 01:00:00 22.3 3 Nordeste 9 Sur 0 945.9 0.9 42
2019-06-17 00:00:00 22.8 5 Nordeste 21 Sur 0 946 1 40
2019-06-16 23:00:00 25.6 12 Sur 19 Sur 0 945.7 0.9 38
2019-06-16 22:00:00 26.1 11 Sur 17 Sur 0 945 0.5 37
2019-06-16 21:00:00 28.1 5 Sudoeste 14 Oeste 0 945 0.3 36
2019-06-16 20:00:00 28.7 7 Oeste 21 Oeste 0 944.8 0 35
2019-06-16 19:00:00 29.5 8 Oeste 19 Oeste 0 944.5 -0.9 35
2019-06-16 18:00:00 29.6 9 Oeste 22 Oeste 0 944.7 -1 34
2019-06-16 17:00:00 29.6 9 Oeste 19 Oeste 0 944.8 -1.1 34
2019-06-16 16:00:00 28.5 10 Oeste 24 Sudoeste 0 945.4 -0.5 38
2019-06-16 15:00:00 27.6 6 Sudoeste 13 Oeste 0 945.7 -0.3 39
2019-06-16 14:00:00 27.9 5 Oeste 15 Oeste 0 945.9 0.4 40
2019-06-16 13:00:00 26.8 8 Oeste 19 Oeste 0 945.9 0.2 40
2019-06-16 12:00:00 25.7 6 Sudoeste 11 Sudoeste 0 946 1.1 43
2019-06-16 11:00:00 24.6 3 Oeste 6 Noroeste 0 945.5 1.4 47
2019-06-16 10:00:00 22.4 3 Oeste 7 Oeste 0 945.7 2.1 50
2019-06-16 09:00:00 19.7 0 Calma 5 Norte 0 944.9 1.5 50
2019-06-16 08:00:00 18 3 Sudeste 8 Sur 0 944.1 0.5 49
2019-06-16 07:00:00 16.6 0 Calma 5 Sur 0 943.6 -0.5 47
2019-06-16 06:00:00 17 3 Nordeste 9 Nordeste 0 943.4 -1.5 46
2019-06-16 05:00:00 16.8 0 Calma -- -- 0 943.6 -2.1 44
2019-06-16 04:00:00 17.8 0 Calma -- -- 0 944.1 -2 42
2019-06-16 03:00:00 18.3 0 Calma -- -- 0 944.9 -1.3 41
2019-06-16 02:00:00 19.8 0 Calma 7 Nordeste 0 945.7 -0.3 39
2019-06-16 01:00:00 20.9 0 Calma 5 Nordeste 0 946.1 0.7 36
2019-06-16 00:00:00 22.5 2 Este 10 Sur 0 946.2 0.9 34
2019-06-15 23:00:00 24.4 6 Sur 15 Sur 0 946 1 32
2019-06-15 22:00:00 24.8 12 Sudeste 18 Sudoeste 0 945.4 0.5 31
2019-06-15 21:00:00 26.7 11 Sudoeste 18 Sudoeste 0 945.3 0.3 31
2019-06-15 20:00:00 27.8 12 Sudoeste 22 Sudoeste 0 945 -0.4 31
2019-06-15 19:00:00 28 13 Sudoeste 23 Oeste 0 944.9 -0.9 31
2019-06-15 18:00:00 28.4 5 Noroeste 25 Oeste 0 945 -1 34
2019-06-15 17:00:00 27.9 13 Sudoeste 27 Oeste 0 945.4 -1 33
2019-06-15 16:00:00 26.5 11 Oeste 25 Oeste 0 945.8 -1 39
2019-06-15 15:00:00 25.1 6 Oeste 21 Oeste 0 946 -0.9 45
2019-06-15 14:00:00 23.8 4 Oeste 21 Oeste 0 946.4 -0.4 49
2019-06-15 13:00:00 22.6 3 Oeste 17 Oeste 0 946.8 0 54
2019-06-15 12:00:00 20.9 4 Noroeste 14 Nordeste 0 946.9 0.3 58
2019-06-15 11:00:00 18.6 6 Norte 13 Norte 0 946.8 1.3 60
2019-06-15 10:00:00 18.3 3 Oeste 8 Oeste 0 946.8 1.7 67
2019-06-15 09:00:00 17.5 0 Calma 8 Oeste 0 946.6 1.6 70
2019-06-15 08:00:00 15.5 0 Calma -- -- 0 945.5 0.4 72
2019-06-15 07:00:00 14.6 0 Calma 11 Sur 0 945.1 0 69
2019-06-15 06:00:00 15.8 6 Sur 14 Sur 0 945 -0.5 67
2019-06-15 05:00:00 16.8 7 Sur 14 Sudoeste 0 945.1 -0.4 65
2019-06-15 04:00:00 17.2 6 Sur 12 Sudoeste 0 945.1 -0.4 63
2019-06-15 03:00:00 17.7 8 Sudoeste 22 Sudoeste 0 945.5 0.4 61
2019-06-15 02:00:00 18 10 Sudoeste 18 Sudoeste 0 945.5 0.8 55
2019-06-15 01:00:00 19.3 9 Sudoeste 26 Sudoeste 0 945.5 1.6 52
2019-06-15 00:00:00 19.7 14 Sur 22 Sur 0 945.1 1.5 50
2019-06-14 23:00:00 20.2 14 Sur 27 Sur 0 944.7 1.7 48
2019-06-14 22:00:00 20.9 14 Sudoeste 31 Sudoeste 0 943.9 1.5 47
2019-06-14 21:00:00 22 16 Sudoeste 35 Oeste 0 943.6 1.3 46
2019-06-14 20:00:00 23.2 17 Sudoeste 31 Sudoeste 0 943 0.7 45
2019-06-14 19:00:00 23.7 22 Sudoeste 35 Sudoeste 0 942.4 0.2 45
2019-06-14 18:00:00 24.2 23 Oeste 37 Oeste 0 942.3 0.2 47
2019-06-14 17:00:00 24.6 18 Sudoeste 35 Sudoeste 0 942.3 0 51
2019-06-14 16:00:00 24.2 18 Sudoeste 39 Sudoeste 0 942.2 0.1 55
2019-06-14 15:00:00 23.7 20 Oeste 34 Oeste 0 942.1 0.2 55
2019-06-14 14:00:00 23.9 15 Oeste 30 Sudoeste 0 942.3 0.8 55
2019-06-14 13:00:00 21.9 14 Oeste 31 Oeste 0 942.1 0.5 61
2019-06-14 12:00:00 20.6 16 Sudoeste 30 Sudoeste 0 941.9 0.8 65
2019-06-14 11:00:00 19.4 10 Sudoeste 26 Sudoeste 0 941.5 1 65
2019-06-14 10:00:00 19.5 15 Sudoeste 35 Sudoeste 0 941.6 1.6 64
2019-06-14 09:00:00 18.5 16 Sudoeste 31 Sudoeste 0 941.1 1.4 55
2019-06-14 08:00:00 18 12 Sudoeste 30 Sudoeste 0 940.5 0.8 55
2019-06-14 07:00:00 18.6 17 Sudoeste 29 Sudoeste 0 940 0.4 56
2019-06-14 06:00:00 18.6 17 Sudoeste 32 Sudoeste 0 939.7 0.3 59
2019-06-14 05:00:00 19.5 18 Sudoeste 27 Sudoeste 0 939.7 0.6 55
2019-06-14 04:00:00 20.4 18 Sudoeste 36 Sudoeste 0 939.6 0.4 53
2019-06-14 03:00:00 21.6 15 Sudoeste 37 Sudoeste 0 939.4 0.5 50
2019-06-14 02:00:00 22.2 21 Sudoeste 34 Sudoeste 0 939.1 0.7 53
2019-06-14 01:00:00 23 15 Sudoeste 24 Sudoeste 0 939.2 2 53
2019-06-14 00:00:00 23.7 15 Sudoeste 24 Sudoeste 0 938.9 2.3 53
2019-06-13 23:00:00 24.6 13 Sudoeste 22 Sudoeste 0 938.4 2.1 52
2019-06-13 22:00:00 25.2 10 Sudoeste 23 Sudoeste 0 937.2 1 51
2019-06-13 21:00:00 26.7 14 Oeste 23 Oeste 0 936.6 0.3 49
2019-06-13 20:00:00 27.9 12 Oeste 23 Sudoeste 0 936.3 -0.6 47
2019-06-13 19:00:00 29 10 Oeste 21 Oeste 0 936.2 -1 47
2019-06-13 18:00:00 28.8 8 Sudoeste 21 Sudoeste 0 936.3 -1.4 47
2019-06-13 17:00:00 27.8 3 Sudoeste 18 Oeste 0 936.9 -1.1 50
2019-06-13 16:00:00 27 3 Sur 19 Noroeste 0 937.2 -1.2 53
2019-06-13 15:00:00 26.5 9 Oeste 28 Sudoeste 0 937.7 -1.1 55
2019-06-13 14:00:00 24.8 5 Noroeste 17 Sudoeste 0 938 -1.4 58
2019-06-13 13:00:00 22.5 6 Noroeste 16 Noroeste 0 938.4 -0.9 64
2019-06-13 12:00:00 21.1 3 Noroeste 21 Noroeste 0 938.8 0.1 68
2019-06-13 11:00:00 20.7 5 Norte 16 Oeste 0 939.4 1.2 70
2019-06-13 10:00:00 18.9 0 Calma 9 Norte 0 939.3 1.2 76
2019-06-13 09:00:00 18 3 Norte 7 Norte 0 938.7 0.7 76
2019-06-13 08:00:00 17.3 0 Calma 0 Calma 0 938.2 -0.1 76
2019-06-13 07:00:00 16.1 2 Este 8 Oeste 0 938.1 0.1 77
2019-06-13 06:00:00 16.6 3 Sudeste 9 Sur 0 938 0 75
2019-06-13 05:00:00 17.5 4 Sur 14 Sur 0 938.3 0.1 71
2019-06-13 04:00:00 17.6 7 Sur 13 Sur 0 938 -0.4 66
2019-06-13 03:00:00 17.8 0 Calma 4 Nordeste 0 938 -0.5 60
2019-06-13 02:00:00 18.9 0 Calma 9 Sudeste 0 938.2 -0.1 55
2019-06-13 01:00:00 20.5 0 Calma 12 Sudeste 0 938.4 0.7 53
2019-06-13 00:00:00 21.7 3 Este 12 Sudeste 0 938.5 0.8 49
2019-06-12 23:00:00 22 0 Calma 10 Sur 0 938.3 0.9 47
2019-06-12 22:00:00 23.6 8 Sur 15 Oeste 0 937.7 0.1 46
2019-06-12 21:00:00 25.6 10 Oeste 20 Oeste 0 937.7 -0.4 44
2019-06-12 20:00:00 26.8 11 Oeste 22 Oeste 0 937.4 -1.4 43
2019-06-12 19:00:00 27 10 Oeste 22 Oeste 0 937.6 -1.5 43
2019-06-12 18:00:00 26.8 6 Oeste 27 Oeste 0 938.1 -1.3 43
2019-06-12 17:00:00 26.8 8 Oeste 29 Sudoeste 0 938.8 -1.3 43
2019-06-12 16:00:00 25.8 18 Oeste 32 Oeste 0 939.1 -1.2 46
2019-06-12 15:00:00 24.8 8 Sudoeste 26 Sudoeste 0 939.4 -1.2 50
2019-06-12 14:00:00 23.9 9 Oeste 28 Oeste 0 940.1 -0.3 52
2019-06-12 13:00:00 23.3 6 Sudoeste 21 Sudoeste 0 940.3 0 57
2019-06-12 12:00:00 22 6 Oeste 17 Sudoeste 0 940.6 0.9 61
2019-06-12 11:00:00 20.5 4 Oeste 12 Norte 0 940.4 1.5 65
2019-06-12 10:00:00 19.7 3 Norte 11 Nordeste 0 940.3 1.7 67
2019-06-12 09:00:00 18.1 2 Nordeste 9 Norte 0 939.7 1.2 72
2019-06-12 08:00:00 16.2 0 Calma 14 Nordeste 0 938.9 0.5 76
2019-06-12 07:00:00 14.7 9 Nordeste 12 Nordeste 0 938.6 0.3 76
2019-06-12 06:00:00 15.4 4 Nordeste 17 Este 0 938.5 -0.1 76
2019-06-12 05:00:00 15.5 11 Nordeste 16 Nordeste 0 938.4 -0.6 76
2019-06-12 04:00:00 15.7 8 Nordeste 16 Nordeste 0 938.3 -1.1 74
2019-06-12 03:00:00 15.8 9 Nordeste 15 Nordeste 0 938.6 -1.4 68
2019-06-12 02:00:00 15.7 7 Nordeste 10 Nordeste 0 939 -1 55
2019-06-12 01:00:00 17.1 8 Nordeste 12 Nordeste 0 939.4 0.1 50
2019-06-12 00:00:00 18.2 4 Nordeste 13 Nordeste 0 940 1.1 48
2019-06-11 23:00:00 19.4 6 Nordeste 20 Nordeste 0 940 2 47
2019-06-11 22:00:00 20.9 13 Nordeste 25 Nordeste 0 939.3 1.6 46
2019-06-11 21:00:00 22.1 15 Nordeste 35 Nordeste 0 938.9 1.6 45
2019-06-11 20:00:00 22.9 23 Nordeste 38 Norte 0 938 0.5 45
2019-06-11 19:00:00 25.1 14 Norte 23 Nordeste 0 937.7 0.1 43
2019-06-11 18:00:00 25.3 8 Sudoeste 21 Oeste 0 937.3 -0.4 45
2019-06-11 17:00:00 25.6 13 Oeste 31 Sudoeste 0 937.5 -0.7 45
2019-06-11 16:00:00 24.8 13 Sudoeste 34 Sudoeste 0 937.6 -1 46
2019-06-11 15:00:00 24.7 17 Sudoeste 30 Sudoeste 0 937.7 -0.9 45
2019-06-11 14:00:00 23.3 15 Sudoeste 32 Sudoeste 0 938.2 -0.1 48
2019-06-11 13:00:00 22.3 16 Sudoeste 28 Sur 0 938.6 0.3 53
2019-06-11 12:00:00 21.3 15 Oeste 30 Oeste 0 938.6 0.2 61
2019-06-11 11:00:00 19.4 13 Oeste 26 Oeste 0 938.3 -0.2 66
2019-06-11 10:00:00 17.5 12 Oeste 22 Sudoeste 0 938.3 -0.3 73
2019-06-11 09:00:00 15.7 12 Oeste 19 Sudoeste 0 938.4 -0.3 79
2019-06-11 08:00:00 14.8 9 Sudoeste 19 Sudoeste 0 938.5 -0.7 80
2019-06-11 07:00:00 14.4 8 Sudoeste 16 Sudoeste 0 938.6 -1.4 79
2019-06-11 06:00:00 14.4 10 Sudoeste 14 Sudoeste 0 938.7 -1.9 74
2019-06-11 05:00:00 15.6 8 Sudoeste 19 Sudoeste 0 939.2 -1.8 70
2019-06-11 04:00:00 16.6 12 Sudoeste 28 Sudoeste 0 940 -1.4 66
2019-06-11 03:00:00 17.7 14 Sudoeste 30 Sudoeste 0 940.6 -0.6 61
2019-06-11 02:00:00 19 17 Sudoeste 28 Sudoeste 0 941 -0.3 56
2019-06-11 01:00:00 20.4 18 Sudoeste 29 Sudoeste 0 941.4 0.5 47
2019-06-11 00:00:00 21.9 9 Sur 12 Sur 0 941.2 0.3 43
2019-06-10 23:00:00 22.7 7 Sudoeste 20 Sur 0 941.3 0.4 42
2019-06-10 22:00:00 23.6 11 Sur 24 Sudoeste 0 940.9 -0.2 41
2019-06-10 21:00:00 25.1 15 Sudoeste 26 Sudoeste 0 940.9 -0.8 40
2019-06-10 20:00:00 26.4 13 Sudoeste 26 Sudoeste 0 940.9 -1.2 38
2019-06-10 19:00:00 26.8 12 Sudoeste 27 Sudoeste 0 941.1 -1.2 37
2019-06-10 18:00:00 26.8 10 Oeste 28 Sudoeste 0 941.7 -1.5 38
2019-06-10 17:00:00 26.6 11 Oeste 26 Oeste 0 942.1 -1.6 40
2019-06-10 16:00:00 25.6 8 Sudoeste 25 Sudoeste 0 942.3 -1.8 41
2019-06-10 15:00:00 24.8 9 Oeste 24 Sudoeste 0 943.2 -1 44
2019-06-10 14:00:00 24 10 Oeste 23 Oeste 0 943.7 -0.3 47
2019-06-10 13:00:00 23 9 Sudoeste 22 Sudoeste 0 944.1 -0.1 50
2019-06-10 12:00:00 21.3 10 Oeste 23 Oeste 0 944.2 0 54
2019-06-10 11:00:00 20.1 8 Oeste 17 Oeste 0 944 0.6 59
2019-06-10 10:00:00 18.4 10 Oeste 17 Sudoeste 0 944.2 0.9 62
2019-06-10 09:00:00 17.6 0 Calma 7 Nordeste 0 944.2 0.6 65
2019-06-10 08:00:00 15 2 Nordeste 9 Sudeste 0 943.4 -0.5 66
2019-06-10 07:00:00 14.7 0 Calma 10 Sur 0 943.3 -1.2 64
2019-06-10 06:00:00 15.6 8 Sur 13 Sur 0 943.6 -1.2 61
2019-06-10 05:00:00 16.1 8 Sur 12 Sur 0 943.9 -0.9 59
2019-06-10 04:00:00 17 7 Sur 19 Sudoeste 0 944.5 -0.3 56
2019-06-10 03:00:00 18 10 Sur 26 Sudoeste 0 944.8 0.3 53
2019-06-10 02:00:00 19 11 Sudoeste 23 Sudoeste 0 944.8 0.6 50
2019-06-10 01:00:00 20.5 12 Sudoeste 25 Sudoeste 0 944.8 1.1 47
2019-06-10 00:00:00 22.4 18 Sudoeste 28 Sudoeste 0 944.5 1.1 48
2019-06-09 23:00:00 23.1 12 Sur 21 Sudoeste 0 944.2 0.9 47
2019-06-09 22:00:00 23.4 10 Sudoeste 23 Sudoeste 0 943.7 0.6 47
2019-06-09 21:00:00 25 15 Sudoeste 26 Sudoeste 0 943.4 0.1 44
2019-06-09 20:00:00 26.3 14 Sudoeste 30 Sudoeste 0 943.3 -0.3 40
2019-06-09 19:00:00 26.7 14 Oeste 41 Oeste 0 943.1 -1.1 40
2019-06-09 18:00:00 27.1 15 Sudoeste 30 Sudoeste 0 943.3 -1.3 42
2019-06-09 17:00:00 26.9 16 Sudoeste 32 Oeste 0 943.6 -1.3 44
2019-06-09 16:00:00 26.4 13 Sudoeste 32 Sudoeste 0 944.2 -1.3 46
2019-06-09 15:00:00 25.5 12 Oeste 24 Oeste 0 944.6 -1 49
2019-06-09 14:00:00 24.1 12 Oeste 23 Oeste 0 944.9 -0.7 49
2019-06-09 13:00:00 22.3 13 Oeste 24 Oeste 0 945.5 -0.4 53
2019-06-09 12:00:00 21.3 12 Oeste 20 Sudoeste 0 945.6 -0.2 57
2019-06-09 11:00:00 19.3 9 Sudoeste 18 Oeste 0 945.6 0.4 61
2019-06-09 10:00:00 19.1 10 Oeste 23 Oeste 0 945.9 0.9 61
2019-06-09 09:00:00 18.9 13 Sudoeste 20 Sudoeste 0 945.8 0.7 61
2019-06-09 08:00:00 18.7 10 Sudoeste 27 Sudoeste 0 945.2 -0.1 59
2019-06-09 07:00:00 18.5 14 Sudoeste 27 Sudoeste 0 945 -0.7 59
2019-06-09 06:00:00 19.3 15 Sudoeste 27 Sudoeste 0 945.1 -0.6 58
2019-06-09 05:00:00 19.9 13 Sudoeste 24 Sudoeste 0 945.3 -0.3 58
2019-06-09 04:00:00 20.6 14 Sudoeste 27 Sudoeste 0 945.7 -0.2 56
2019-06-09 03:00:00 21.5 14 Sudoeste 29 Sudoeste 0 945.7 -0.3 52
2019-06-09 02:00:00 22.3 15 Sudoeste 26 Sudoeste 0 945.6 0.3 50
2019-06-09 01:00:00 23.3 12 Sur 21 Sudoeste 0 945.9 1.4 47
2019-06-09 00:00:00 23.8 13 Sur 22 Sur 0 946 1.9 46
2019-06-08 23:00:00 24.5 16 Sur 23 Sur 0 945.3 1.8 44
2019-06-08 22:00:00 25.5 13 Sur 22 Sudoeste 0 944.5 1.4 41
2019-06-08 21:00:00 27.3 12 Sudoeste 26 Sudoeste 0 944.1 0.5 38
2019-06-08 20:00:00 29.6 15 Sudoeste 31 Oeste 0 943.5 -0.4 36
2019-06-08 19:00:00 31 9 Sudoeste 21 Sudoeste 0 943.1 -1 35
2019-06-08 18:00:00 30.9 9 Oeste 25 Sudoeste 0 943.6 -1.2 35
2019-06-08 17:00:00 31.2 10 Sudoeste 21 Sudoeste 0 943.9 -1.4 36
2019-06-08 16:00:00 30.3 12 Oeste 19 Oeste 0 944.1 -1.6 38
2019-06-08 15:00:00 29.2 6 Noroeste 22 Oeste 0 944.8 -0.9 40
2019-06-08 14:00:00 28.1 9 Oeste 18 Oeste 0 945.3 -0.4 43
2019-06-08 13:00:00 27.1 7 Sudoeste 17 Oeste 0 945.7 0 45
2019-06-08 12:00:00 25.1 8 Oeste 15 Sudoeste 0 945.7 0.8 47
2019-06-08 11:00:00 22.6 4 Sudoeste 12 Oeste 0 945.7 1.2 50
2019-06-08 10:00:00 20.1 0 Calma 6 Norte 0 945.7 1.6 53
2019-06-08 09:00:00 17.6 0 Calma 5 Sur 0 944.9 0.9 57
2019-06-08 08:00:00 15.5 0 Calma 7 Nordeste 0 944.5 0.3 56
2019-06-08 07:00:00 13.6 0 Calma 7 Nordeste 0 944.1 -0.1 56
2019-06-08 06:00:00 14 0 Calma 6 Nordeste 0 944 -0.5 52
2019-06-08 05:00:00 14.3 0 Calma 10 Nordeste 0 944.2 -0.9 50
2019-06-08 04:00:00 15.4 0 Calma 19 Nordeste 0 944.2 -1.2 47
2019-06-08 03:00:00 16.3 0 Calma 15 Nordeste 0 944.5 -1.3 44
2019-06-08 02:00:00 17 0 Calma 14 Nordeste 0 945.1 -0.4 43
2019-06-08 01:00:00 17.9 8 Nordeste 13 Nordeste 0 945.4 0.3 42
2019-06-08 00:00:00 18.3 5 Sudeste 15 Este 0 945.8 0.9 41
2019-06-07 23:00:00 19.2 0 Calma 12 Sudeste 0 945.5 0.9 39
2019-06-07 22:00:00 21.4 10 Sudeste 12 Sudeste 0 945.1 0.7 38
2019-06-07 21:00:00 24.2 4 Sudoeste 15 Oeste 0 944.9 0.5 38
2019-06-07 20:00:00 24.8 8 Oeste 21 Sudoeste 0 944.6 0.1 39
2019-06-07 19:00:00 24.8 10 Sudoeste 19 Oeste 0 944.4 0.1 40
2019-06-07 18:00:00 24.3 8 Oeste 19 Oeste 0 944.4 0 45
2019-06-07 17:00:00 24.3 12 Sudoeste 25 Sudeste 0 944.5 0 49
2019-06-07 16:00:00 22.6 9 Oeste 26 Sur 0 944.3 -0.2 56
2019-06-07 15:00:00 22 14 Sudoeste 26 Oeste 0 944.4 0.4 61
2019-06-07 14:00:00 21.1 14 Oeste 30 Sudoeste 0 944.5 1 66
2019-06-07 13:00:00 19.8 13 Sudoeste 27 Sudoeste 0 944.5 1.6 73
2019-06-07 12:00:00 17.4 18 Oeste 28 Oeste 0 944 1.6 79
2019-06-07 11:00:00 16.1 15 Oeste 24 Oeste 0 943.5 1.8 84
2019-06-07 10:00:00 15.2 13 Sudoeste 21 Sudoeste 0 942.9 1.6 84
2019-06-07 09:00:00 14.6 9 Sudoeste 19 Sudoeste 0 942.4 1.3 84
2019-06-07 08:00:00 14.7 12 Sudoeste 22 Sudoeste 0 941.7 1 80
2019-06-07 07:00:00 14.3 12 Sudoeste 24 Sudoeste 0 941.3 0.7 76
2019-06-07 06:00:00 14.7 15 Sudoeste 31 Sudoeste 0 941.1 0.7 71
2019-06-07 05:00:00 14.8 16 Sudoeste 27 Sur 0 940.7 0 68
2019-06-07 04:00:00 15.1 13 Sudoeste 22 Sudoeste 0 940.6 0.3 59
2019-06-07 03:00:00 16 16 Sudoeste 26 Sudoeste 0 940.4 0.4 49
2019-06-07 02:00:00 16.9 12 Sudoeste 36 Sudoeste 0 940.7 1.1 41
2019-06-07 01:00:00 18.3 12 Sudoeste 24 Sur 0 940.3 1.4 40
2019-06-07 00:00:00 19.5 12 Sudoeste 22 Sudoeste 0 940 1.3 41
2019-06-06 23:00:00 20.7 12 Sudoeste 20 Sudoeste 0 939.6 1.2 40
2019-06-06 22:00:00 21.8 10 Sudoeste 24 Sudoeste 0 938.9 0.8 38
2019-06-06 21:00:00 23.9 14 Sudoeste 30 Oeste 0 938.7 0.5 37
2019-06-06 20:00:00 25.5 16 Oeste 32 Oeste 0 938.4 -0.2 36
2019-06-06 19:00:00 26.6 16 Oeste 36 Oeste 0 938.1 -1 36
2019-06-06 18:00:00 26.7 20 Sudoeste 40 Oeste 0 938.2 -1.7 35
2019-06-06 17:00:00 27.5 17 Sudoeste 36 Oeste 0 938.6 -1.9 34
2019-06-06 16:00:00 26.5 14 Oeste 33 Oeste 0 939.1 -1.8 35
2019-06-06 15:00:00 25.4 13 Sudoeste 27 Noroeste 0 939.9 -1.2 39
2019-06-06 14:00:00 23.8 14 Oeste 26 Sudoeste 0 940.5 -0.9 44
2019-06-06 13:00:00 21.6 11 Oeste 21 Oeste 0 940.9 -0.2 47
2019-06-06 12:00:00 20.2 7 Oeste 18 Oeste 0 941.1 -0.4 49
2019-06-06 11:00:00 18.7 4 Noroeste 9 Noroeste 0 941.4 0.6 51
2019-06-06 10:00:00 16.9 4 Norte 9 Nordeste 0 941.1 0.5 55
2019-06-06 09:00:00 14.7 6 Nordeste 10 Nordeste 0 941.5 0.9 58
2019-06-06 08:00:00 12.4 7 Nordeste 10 Nordeste 0 940.8 0.1 64
2019-06-06 07:00:00 10.9 4 Norte 12 Nordeste 0 940.6 -0.2 62
2019-06-06 06:00:00 10.8 3 Nordeste 11 Nordeste 0 940.6 -0.6 59
2019-06-06 05:00:00 11.7 0 Calma 5 Nordeste 0 940.7 -0.8 56
2019-06-06 04:00:00 12.6 0 Calma 5 Norte 0 940.8 -1.1 54
2019-06-06 03:00:00 13.5 0 Calma 6 Noroeste 0 941.2 -1 51
2019-06-06 02:00:00 14.6 0 Calma 5 Este 0 941.5 -0.5 48
2019-06-06 01:00:00 16.2 3 Norte 10 Sudeste 0 941.9 0.4 45
2019-06-06 00:00:00 17.6 7 Sur 11 Sur 0 942.2 1 44
2019-06-05 23:00:00 18.6 5 Sur 11 Sur 0 942 1 43
2019-06-05 22:00:00 19.1 4 Sur 12 Oeste 0 941.5 0.7 42
2019-06-05 21:00:00 21.2 9 Sudoeste 20 Oeste 0 941.2 0.5 38
2019-06-05 20:00:00 22.3 9 Noroeste 18 Oeste 0 941 0.3 39
2019-06-05 19:00:00 21.8 12 Oeste 26 Noroeste 0 940.8 -0.3 39
2019-06-05 18:00:00 22.2 12 Noroeste 29 Noroeste 0 940.7 -0.6 40
2019-06-05 17:00:00 22.1 14 Sudoeste 36 Sudoeste 0 940.7 -0.7 43
2019-06-05 16:00:00 21.9 15 Sudoeste 42 Sudoeste 0 941.1 0 46
2019-06-05 15:00:00 21.1 21 Sudoeste 36 Sudoeste 0 941.3 0.3 46
2019-06-05 14:00:00 20.3 17 Oeste 37 Oeste 0 941.4 0.6 49
2019-06-05 13:00:00 19.2 15 Sudoeste 36 Oeste 0 941.1 0.5 50
2019-06-05 12:00:00 18 17 Sudoeste 36 Oeste 0 941 1.4 53
2019-06-05 11:00:00 17.3 19 Oeste 39 Sudoeste 0 940.8 1.6 55
2019-06-05 10:00:00 16.4 25 Sudoeste 46 Oeste 0 940.6 2.2 58
2019-06-05 09:00:00 16.1 23 Sudoeste 41 Oeste 0 939.6 1.8 60
2019-06-05 08:00:00 15.9 23 Sudoeste 40 Sudoeste 0 939.2 1.5 69
2019-06-05 07:00:00 17.3 15 Sudoeste 35 Oeste 0 938.4 0.4 73
2019-06-05 06:00:00 18 19 Sudoeste 33 Sudoeste 0 937.8 -0.7 78
2019-06-05 05:00:00 18.4 16 Sudoeste 38 Sudoeste 0 937.7 -1 79
2019-06-05 04:00:00 18.8 19 Sudoeste 40 Sudoeste 0 938 -0.6 77
2019-06-05 03:00:00 19.7 20 Sudoeste 36 Sudoeste 0 938.5 -0.1 73
2019-06-05 02:00:00 20.4 23 Sudoeste 38 Sudoeste 0 938.7 0.4 65
2019-06-05 01:00:00 22 24 Sudoeste 38 Sudoeste 0 938.6 0.8 59
2019-06-05 00:00:00 23.6 13 Sudoeste 54 Sudoeste 0 938.6 0.9 50
2019-06-04 23:00:00 25 13 Sudoeste 30 Sudoeste 0 938.3 0.1 47
2019-06-04 22:00:00 26 14 Sudoeste 28 Sudoeste 0 937.8 -0.5 42
2019-06-04 21:00:00 27.2 15 Sudoeste 44 Oeste 0 937.7 -1.1 39
2019-06-04 20:00:00 29.1 19 Oeste 37 Oeste 0 938.2 -1 38
2019-06-04 19:00:00 29.7 19 Oeste 46 Sudoeste 0 938.3 -1.8 37
2019-06-04 18:00:00 30.1 20 Sudoeste 39 Sudoeste 0 938.8 -1.4 35
2019-06-04 17:00:00 30.1 18 Sudoeste 37 Oeste 0 939.2 -2.4 34
2019-06-04 16:00:00 29.8 18 Sudoeste 36 Oeste 0 940.1 -1.9 33
2019-06-04 15:00:00 29.9 19 Sudoeste 35 Sudoeste 0 940.2 -2 34
2019-06-04 14:00:00 28.8 18 Oeste 38 Sudoeste 0 941.6 -0.6 35
2019-06-04 13:00:00 28.4 18 Sudoeste 28 Sudoeste 0 942 -0.3 37
2019-06-04 12:00:00 26.8 13 Sudoeste 25 Sudoeste 0 942.2 0.1 41
2019-06-04 11:00:00 25.2 7 Sudoeste 14 Sudoeste 0 942.2 0.1 44
2019-06-04 10:00:00 23.1 2 Noroeste 7 Oeste 0 942.3 0.2 48
2019-06-04 09:00:00 20.7 4 Nordeste 7 Nordeste 0 942.1 0 51
2019-06-04 08:00:00 20.5 0 Calma 14 Sur 0 942.1 -0.6 49
2019-06-04 07:00:00 20.4 11 Sur 17 Sur 0 942.1 -0.7 46
2019-06-04 06:00:00 21.1 12 Sur 18 Sur 0 942.1 -1.2 46
2019-06-04 05:00:00 21.8 13 Sur 27 Sudoeste 0 942.7 -0.7 45
2019-06-04 04:00:00 22.6 18 Sudoeste 31 Sudoeste 0 942.8 -0.8 43
2019-06-04 03:00:00 23.9 17 Sur 26 Sudoeste 0 943.3 -0.2 39
2019-06-04 02:00:00 24.8 8 Sudoeste 14 Sudoeste 0 943.4 0.1 37
2019-06-04 01:00:00 24.8 0 Calma 22 Sur 0 943.6 0.9 36
2019-06-04 00:00:00 27.1 13 Sur 21 Sur 0 943.5 0.9 35
2019-06-03 23:00:00 28.4 14 Sur 20 Sur 0 943.3 0.6 34
2019-06-03 22:00:00 29.1 12 Sur 17 Sur 0 942.7 -0.2 33
2019-06-03 21:00:00 31.6 6 Sudoeste 22 Oeste 0 942.6 -0.7 32
2019-06-03 20:00:00 32.9 13 Oeste 23 Oeste 0 942.7 -1 30
2019-06-03 19:00:00 33.7 11 Oeste 30 Sudoeste 0 942.9 -1.7 30
2019-06-03 18:00:00 33.7 11 Oeste 27 Sudoeste 0 943.3 -1.7 31
2019-06-03 17:00:00 33.3 13 Sudoeste 26 Sudoeste 0 943.7 -2 32
2019-06-03 16:00:00 32.9 11 Sudoeste 24 Oeste 0 944.6 -1.4 32
2019-06-03 15:00:00 32.1 6 Oeste 16 Oeste 0 945 -1.5 34
2019-06-03 14:00:00 31.2 4 Sudoeste 21 Sudoeste 0 945.7 -0.6 35
2019-06-03 13:00:00 29.3 6 Oeste 17 Sudoeste 0 946 -0.6 37
2019-06-03 12:00:00 27.4 4 Oeste 15 Oeste 0 946.5 0.5 40
2019-06-03 11:00:00 25.3 6 Sudoeste 12 Sudoeste 0 946.3 0.5 44
2019-06-03 10:00:00 22.8 0 Calma 6 Noroeste 0 946.6 1 47
2019-06-03 09:00:00 19.9 4 Nordeste 8 Sudeste 0 946 0 52
2019-06-03 08:00:00 18.5 0 Calma 7 Este 0 945.8 -0.1 49
2019-06-03 07:00:00 18.8 3 Este 7 Nordeste 0 945.6 -0.2 46
2019-06-03 06:00:00 20.3 0 Calma 18 Sur 0 946 0.1 43
2019-06-03 05:00:00 23.4 12 Sur 19 Sur 0 945.9 -0.4 41
2019-06-03 04:00:00 22.1 3 Sur 10 Sur 0 945.8 -0.9 41
2019-06-03 03:00:00 23.8 8 Sur 13 Sur 0 945.9 -0.2 41
2019-06-03 02:00:00 23.2 3 Sur 13 Sudoeste 0 946.3 0.7 39
2019-06-03 01:00:00 25.1 12 Sudoeste 24 Sudoeste 0 946.7 2.1 38
2019-06-03 00:00:00 26.8 3 Norte 17 Sudeste 0 946.1 2 35
2019-06-02 23:00:00 28.2 4 Sudeste 24 Sudeste 0 945.6 1.7 35
2019-06-02 22:00:00 29.4 13 Sudeste 25 Sudeste 0 944.6 0.6 34
2019-06-02 21:00:00 31.1 13 Sudeste 22 Sudeste 0 944.1 -0.4 33
2019-06-02 20:00:00 34 0 Calma 13 Norte 0 943.9 -1 32
2019-06-02 19:00:00 34.3 6 Nordeste 13 Norte 0 944 -1.2 32
2019-06-02 18:00:00 34 3 Sudeste 23 Oeste 0 944.5 -1.2 32
2019-06-02 17:00:00 33.2 9 Nordeste 22 Noroeste 0 944.9 -1.7 33
2019-06-02 16:00:00 33.1 6 Nordeste 23 Norte 0 945.2 -2.2 34
2019-06-02 15:00:00 32.2 9 Noroeste 19 Norte 0 945.7 -1.9 36
2019-06-02 14:00:00 30.9 7 Norte 14 Noroeste 0 946.6 -0.9 38
2019-06-02 13:00:00 30 4 Oeste 12 Oeste 0 947.4 0.2 40
2019-06-02 12:00:00 27.9 2 Norte 13 Sur 0 947.6 0.7 41
2019-06-02 11:00:00 26 4 Oeste 10 Oeste 0 947.5 1.3 45
2019-06-02 10:00:00 25.5 0 Calma 6 Noroeste 0 947.2 1.3 46
2019-06-02 09:00:00 21.7 4 Norte 7 Norte 0 946.9 1.1 49
2019-06-02 08:00:00 20.4 5 Nordeste 9 Nordeste 0 946.2 0.3 50
2019-06-02 07:00:00 20.2 2 Sur 5 Sur 0 945.9 -0.6 50
2019-06-02 06:00:00 18.2 0 Calma -- -- 0 945.8 -1.1 49
2019-06-02 05:00:00 21.2 0 Calma -- -- 0 945.9 -1.2 47
2019-06-02 04:00:00 21.5 4 Nordeste 10 Sur 0 946.5 -0.5 46
2019-06-02 03:00:00 23.7 5 Sur 12 Sur 0 946.9 0 45
2019-06-02 02:00:00 21.4 3 Sudeste 12 Sur 0 947.1 0.3 41
2019-06-02 01:00:00 24.9 2 Sudoeste 12 Este 0 947 0.7 40
2019-06-02 00:00:00 23.2 6 Nordeste 12 Nordeste 0 946.9 0.8 38
2019-06-01 23:00:00 25.6 6 Nordeste 24 Este 0 946.8 1.1 35
2019-06-01 22:00:00 26.5 14 Sudeste 24 Este 0 946.3 0.5 33
2019-06-01 21:00:00 28.9 13 Nordeste 29 Nordeste 0 946.1 0.3 32
2019-06-01 20:00:00 30 18 Nordeste 32 Nordeste 0 945.7 -0.4 31
2019-06-01 19:00:00 30.9 19 Nordeste 32 Nordeste 0 945.8 -1 30
2019-06-01 18:00:00 31.3 14 Nordeste 33 Norte 0 945.8 -1.4 30
2019-06-01 17:00:00 31.7 15 Nordeste 34 Nordeste 0 946.1 -1.8 30
2019-06-01 16:00:00 31.4 16 Nordeste 31 Nordeste 0 946.8 -1.6 31
2019-06-01 15:00:00 30.9 13 Nordeste 34 Norte 0 947.2 -1.3 31
2019-06-01 14:00:00 29.8 12 Nordeste 27 Nordeste 0 947.9 -0.5 32
2019-06-01 13:00:00 29.1 13 Nordeste 26 Norte 0 948.4 0.3 35
2019-06-01 12:00:00 28.1 12 Nordeste 25 Nordeste 0 948.5 0.6 40
2019-06-01 11:00:00 26.6 8 Norte 21 Norte 0 948.4 1 44
2019-06-01 10:00:00 23.8 8 Norte 16 Nordeste 0 948.1 0.9 50
2019-06-01 09:00:00 22.3 3 Nordeste 9 Nordeste 0 947.9 0.7 52
2019-06-01 08:00:00 22.4 0 Calma 5 Sudeste 0 947.4 0 57
2019-06-01 07:00:00 18.9 0 Calma -- -- 0 947.2 -0.4 55
2019-06-01 06:00:00 16.8 0 Calma -- -- 0 947.2 -0.4 53
2019-06-01 05:00:00 18.2 0 Calma -- -- 0 947.4 -0.6 51
2019-06-01 04:00:00 18.7 0 Calma 7 Nordeste 0 947.6 -0.6 49
2019-06-01 03:00:00 21.7 0 Calma 12 Sudoeste 0 947.6 -0.9 46
2019-06-01 02:00:00 23.4 3 Sudeste 8 Sur 0 948 -0.4 44
2019-06-01 01:00:00 21.2 5 Nordeste 10 Norte 0 948.2 0.5 44
2019-06-01 00:00:00 23.4 5 Nordeste 16 Este 0 948.5 1 42
2019-05-31 23:00:00 24.9 9 Este 28 Sudeste 0 948.4 1.2 41
2019-05-31 22:00:00 25.9 15 Este 24 Este 0 947.7 0.8 39
2019-05-31 21:00:00 27.9 10 Este 28 Este 0 947.5 0.2 37
2019-05-31 20:00:00 29.6 14 Nordeste 36 Nordeste 0 947.2 -0.4 35
2019-05-31 19:00:00 30.4 15 Nordeste 33 Nordeste 0 946.9 -1.2 35
2019-05-31 18:00:00 30.8 13 Este 33 Nordeste 0 947.3 -1.2 35
2019-05-31 17:00:00 30.5 15 Nordeste 33 Nordeste 0 947.6 -1.5 35
2019-05-31 16:00:00 29.8 15 Nordeste 29 Nordeste 0 948.1 -1.4 35
2019-05-31 15:00:00 30.2 12 Nordeste 27 Nordeste 0 948.5 -1.4 35
2019-05-31 14:00:00 29.2 10 Nordeste 21 Este 0 949.1 -0.7 35
2019-05-31 13:00:00 28.5 9 Este 22 Este 0 949.5 -0.1 35
2019-05-31 12:00:00 29.3 8 Sur 21 Sudeste 0 949.9 0.9 38
2019-05-31 11:00:00 27.4 3 Sudoeste 14 Nordeste 0 949.8 1.3 43
2019-05-31 10:00:00 25.2 6 Oeste 16 Norte 0 949.6 1.3 49
2019-05-31 09:00:00 21.4 4 Norte 9 Norte 0 949 0.7 52
2019-05-31 08:00:00 21.4 2 Sudeste 8 Nordeste 0 948.5 -0.2 55
2019-05-31 07:00:00 17.8 4 Nordeste 6 Nordeste 0 948.3 -0.6 56
2019-05-31 06:00:00 16.9 0 Calma 7 Sur 0 948.3 -1.2 56
2019-05-31 05:00:00 19.9 5 Sur 9 Sur 0 948.7 -1.3 53
2019-05-31 04:00:00 20.4 3 Sudeste 7 Sur 0 948.9 -1.2 53
2019-05-31 03:00:00 18.6 4 Nordeste 6 Nordeste 0 949.5 -0.7 53
2019-05-31 02:00:00 20.9 0 Calma 11 Sudeste 0 950 0 50
2019-05-31 01:00:00 22.8 3 Sur 12 Este 0 950.1 0.9 47
2019-05-31 00:00:00 23.8 4 Nordeste 15 Nordeste 0 950.2 1.5 47
2019-05-30 23:00:00 23.9 5 Norte 23 Este 0 950 1.7 44
2019-05-30 22:00:00 24.8 10 Este 26 Este 0 949.2 1 41
2019-05-30 21:00:00 27.4 9 Este 30 Nordeste 0 948.7 0.2 38
2019-05-30 20:00:00 28.3 21 Nordeste 31 Nordeste 0 948.3 -0.5 35
2019-05-30 19:00:00 29.1 20 Nordeste 32 Nordeste 0 948.2 -0.8 35
2019-05-30 18:00:00 29.4 17 Nordeste 28 Nordeste 0 948.5 -0.9 34
2019-05-30 17:00:00 29.3 14 Nordeste 28 Nordeste 0 948.8 -1 34
2019-05-30 16:00:00 29.7 8 Nordeste 24 Nordeste 0 949 -1.1 35
2019-05-30 15:00:00 28.4 14 Norte 24 Nordeste 0 949.4 -0.9 37
2019-05-30 14:00:00 28.4 5 Noroeste 17 Nordeste 0 949.8 -0.5 40
2019-05-30 13:00:00 27.6 6 Norte 19 Nordeste 0 950.1 0.2 41
2019-05-30 12:00:00 27.3 5 Sudoeste 15 Oeste 0 950.3 0.8 45
2019-05-30 11:00:00 24.8 8 Oeste 14 Oeste 0 950.3 1.7 49
2019-05-30 10:00:00 23.5 5 Oeste 12 Sudoeste 0 949.9 1.6 50
2019-05-30 09:00:00 24.6 4 Sudoeste 8 Sur 0 949.5 1.4 53
2019-05-30 08:00:00 19.9 3 Nordeste 12 Nordeste 0 948.6 0.5 54
2019-05-30 07:00:00 22.1 0 Calma 15 Nordeste 0 948.3 0.1 53
2019-05-30 06:00:00 19.4 0 Calma 13 Nordeste 0 948.1 0 53
2019-05-30 05:00:00 19 0 Calma 7 Nordeste 0 948.1 -0.5 50
2019-05-30 04:00:00 19.5 3 Nordeste 19 Nordeste 0 948.2 -0.5 49
2019-05-30 03:00:00 18.7 6 Nordeste 14 Norte 0 948.1 -0.7 46
2019-05-30 02:00:00 22.6 0 Calma 8 Nordeste 0 948.6 0.5 45
2019-05-30 01:00:00 21.7 6 Este 13 Nordeste 0 948.7 1.2 42
2019-05-30 00:00:00 24.9 0 Calma 15 Este 0 948.8 1.6 40
2019-05-29 23:00:00 23 5 Nordeste 17 Este 0 948.1 1.4 37
2019-05-29 22:00:00 24.7 12 Este 21 Este 0 947.5 0.9 35
2019-05-29 21:00:00 26.2 12 Nordeste 29 Nordeste 0 947.2 0.6 33
2019-05-29 20:00:00 27.1 17 Nordeste 30 Nordeste 0 946.7 0 33
2019-05-29 19:00:00 27.7 16 Nordeste 27 Nordeste 0 946.6 -0.3 32
2019-05-29 18:00:00 28 14 Norte 28 Norte 0 946.6 -0.5 32
2019-05-29 17:00:00 27.9 15 Norte 32 Norte 0 946.7 -0.7 34
2019-05-29 16:00:00 27.2 13 Nordeste 31 Norte 0 946.9 -0.7 35
2019-05-29 15:00:00 26.4 15 Norte 28 Norte 0 947.1 -0.4 35
2019-05-29 14:00:00 25.8 8 Nordeste 26 Nordeste 0 947.4 0.1 38
2019-05-29 13:00:00 24.8 9 Norte 21 Norte 0 947.6 0.5 38
2019-05-29 12:00:00 23 9 Nordeste 21 Norte 0 947.5 1.1 41
2019-05-29 11:00:00 21.7 12 Nordeste 27 Nordeste 0 947.3 1.6 47
2019-05-29 10:00:00 19.8 14 Nordeste 23 Nordeste 0 947.1 1.9 53
2019-05-29 09:00:00 17.9 12 Nordeste 23 Norte 0 946.4 1.5 61
2019-05-29 08:00:00 19.2 4 Norte 18 Nordeste 0 945.7 0.9 63
2019-05-29 07:00:00 15.1 11 Nordeste 15 Nordeste 0 945.2 0.2 67
2019-05-29 06:00:00 16 8 Nordeste 18 Nordeste 0 944.9 0.4 62
2019-05-29 05:00:00 18.1 13 Nordeste 26 Nordeste 0 944.8 0.4 56
2019-05-29 04:00:00 18.6 2 Este 20 Nordeste 0 945 0.8 48
2019-05-29 03:00:00 18.8 11 Nordeste 26 Nordeste 0 944.5 0.7 42
2019-05-29 02:00:00 19.9 9 Nordeste 14 Nordeste 0 944.4 0.7 40
2019-05-29 01:00:00 21.1 8 Nordeste 12 Nordeste 0 944.2 1.2 38
2019-05-29 00:00:00 22.6 5 Nordeste 17 Nordeste 0 943.8 1.5 37
2019-05-28 23:00:00 24.7 17 Nordeste 31 Nordeste 0 943.7 1.8 35
2019-05-28 22:00:00 25.5 9 Nordeste 24 Nordeste 0 943 1.6 36
2019-05-28 21:00:00 27.5 14 Norte 24 Norte 0 942.3 1.6 36
2019-05-28 20:00:00 28.9 15 Norte 28 Nordeste 0 941.9 0.9 36
2019-05-28 19:00:00 30 14 Norte 29 Noroeste 0 941.4 0.8 36
2019-05-28 18:00:00 30.8 13 Norte 29 Norte 0 940.7 -0.6 36
2019-05-28 17:00:00 30.2 13 Nordeste 27 Norte 0 941 -0.6 37
2019-05-28 16:00:00 29.9 14 Norte 27 Norte 0 940.6 -1.1 37
2019-05-28 15:00:00 30 6 Nordeste 23 Norte 0 941.3 -0.4 38
2019-05-28 14:00:00 30.5 6 Norte 18 Nordeste 0 941.6 -0.1 41
2019-05-28 13:00:00 29.4 0 Calma 13 Noroeste 0 941.7 0.5 43
2019-05-28 12:00:00 28 2 Sudeste 9 Noroeste 0 941.7 1.4 47
2019-05-28 11:00:00 25 3 Nordeste 14 Nordeste 0 941.7 1.9 52
2019-05-28 10:00:00 21 11 Nordeste 17 Nordeste 0 941.2 1.7 61
2019-05-28 09:00:00 19.3 9 Nordeste 13 Norte 0 940.3 0.8 64
2019-05-28 08:00:00 16.5 8 Nordeste 17 Nordeste 0 939.8 0.4 72
2019-05-28 07:00:00 16.6 9 Nordeste 21 Nordeste 0 939.5 0 68
2019-05-28 06:00:00 17.4 13 Nordeste 17 Nordeste 0 939.5 -0.3 61
2019-05-28 05:00:00 20 6 Nordeste 10 Sur 0 939.4 0 51
2019-05-28 04:00:00 23.7 10 Sur 18 Sur 0 939.5 0.1 47
2019-05-28 03:00:00 23.5 3 Sudoeste 26 Sudoeste 0 939.8 -0.1 47
2019-05-28 02:00:00 24.1 4 Sur 14 Este 0 939.4 -0.3 47
2019-05-28 01:00:00 25.8 5 Sudeste 15 Sur 0 939.4 0.4 44
2019-05-28 00:00:00 25.4 2 Noroeste 21 Sudeste 0 939.9 0.8 48
2019-05-27 23:00:00 27.1 2 Sur 16 Sur 0 939.7 0.6 44
2019-05-27 22:00:00 28.6 12 Sur 18 Sur 0 939 0 40
2019-05-27 21:00:00 29.1 11 Sur 18 Sudoeste 0 939.1 0.2 40
2019-05-27 20:00:00 30.1 10 Sudoeste 22 Sudoeste 0 939.1 -0.4 40
2019-05-27 19:00:00 30.4 14 Sudoeste 24 Sudoeste 0 939 -1.6 39
2019-05-27 18:00:00 30.8 13 Sudoeste 33 Oeste 0 938.9 -1.9 38
2019-05-27 17:00:00 31 8 Sudoeste 27 Oeste 0 939.5 -2.1 40
2019-05-27 16:00:00 30.2 8 Sudoeste 21 Sudoeste 0 940.6 -1.7 41
2019-05-27 15:00:00 29.1 7 Sudoeste 18 Sudoeste 0 940.8 -1.6 41
2019-05-27 14:00:00 28.6 6 Sudoeste 15 Sudoeste 0 941.6 -1 41
2019-05-27 13:00:00 28.3 7 Sudoeste 18 Oeste 0 942.3 -0.4 43
2019-05-27 12:00:00 27.2 6 Sur 15 Noroeste 0 942.4 0.5 44
2019-05-27 11:00:00 25.4 5 Oeste 10 Oeste 0 942.6 1.3 46
2019-05-27 10:00:00 23.8 0 Calma 10 Norte 0 942.7 2 51
2019-05-27 09:00:00 19.7 4 Norte 9 Norte 0 941.9 1.1 51
2019-05-27 08:00:00 17 0 Calma 10 Nordeste 0 941.3 0.2 57
2019-05-27 07:00:00 17.5 0 Calma 9 Nordeste 0 940.7 -0.9 55
2019-05-27 06:00:00 18.5 0 Calma 6 Nordeste 0 940.8 -1 55
2019-05-27 05:00:00 18.5 2 Nordeste 8 Nordeste 0 941.1 -1.2 53
2019-05-27 04:00:00 19.1 0 Calma 5 Nordeste 0 941.6 -0.9 50
2019-05-27 03:00:00 22.4 0 Calma 3 Nordeste 0 941.8 -1.2 48
2019-05-27 02:00:00 22.1 0 Calma -- -- 0 942.3 -0.8 47
2019-05-27 01:00:00 21.9 0 Calma 7 Nordeste 0 942.5 -0.2 44
2019-05-27 00:00:00 20.7 4 Sudeste 9 Este 0 943 0.4 41
2019-05-26 23:00:00 21.5 0 Calma 9 Este 0 943.1 0.4 40
2019-05-26 22:00:00 23.6 4 Nordeste 10 Norte 0 942.7 0 37
2019-05-26 21:00:00 26 9 Norte 26 Nordeste 0 942.6 -0.1 35
2019-05-26 20:00:00 27.2 11 Norte 24 Norte 0 942.7 -0.5 33
2019-05-26 19:00:00 27.1 13 Norte 33 Nordeste 0 942.7 -0.9 33
2019-05-26 18:00:00 27.1 17 Norte 29 Norte 0 942.7 -1.3 33
2019-05-26 17:00:00 27.1 15 Norte 30 Norte 0 943.2 -1 34
2019-05-26 16:00:00 26.6 14 Norte 28 Noroeste 0 943.6 -1.1 36
2019-05-26 15:00:00 26.4 6 Norte 28 Oeste 0 944 -0.7 39
2019-05-26 14:00:00 26.4 12 Oeste 25 Oeste 0 944.2 -0.8 43
2019-05-26 13:00:00 25.4 11 Noroeste 23 Noroeste 0 944.7 -0.2 50
2019-05-26 12:00:00 24.8 5 Oeste 18 Sur 0 944.7 0.7 55
2019-05-26 11:00:00 22.4 9 Oeste 18 Noroeste 0 945 1.1 57
2019-05-26 10:00:00 23.1 5 Oeste 10 Sudoeste 0 944.9 1.6 59
2019-05-26 09:00:00 18.8 4 Norte 8 Norte 0 944 0.7 61
2019-05-26 08:00:00 21 0 Calma 6 Este 0 943.9 0.6 66
2019-05-26 07:00:00 17.9 0 Calma 2 Sur 0 943.3 -0.3 67
2019-05-26 06:00:00 14.9 2 Sudeste 4 Este 0 943.3 -0.7 65
2019-05-26 05:00:00 18.3 0 Calma 6 Nordeste 0 943.3 -0.9 64
2019-05-26 04:00:00 15.9 3 Sur 8 Nordeste 0 943.6 -1.1 61
2019-05-26 03:00:00 21.1 3 Sudoeste 14 Sur 0 944 -0.9 58
2019-05-26 02:00:00 17.1 0 Calma 6 Nordeste 0 944.2 -0.2 57
2019-05-26 01:00:00 20.5 0 Calma 9 Sur 0 944.7 0.7 56
2019-05-26 00:00:00 23.6 0 Calma 16 Este 0 944.9 1.2 52
2019-05-25 23:00:00 21.3 12 Este 18 Este 0 944.4 1.2 47
2019-05-25 22:00:00 21.9 12 Este 18 Este 0 944 0.9 45
2019-05-25 21:00:00 23.5 12 Nordeste 27 Nordeste 0 943.7 0.6 42
2019-05-25 20:00:00 24.6 13 Nordeste 29 Nordeste 0 943.2 0 40
2019-05-25 19:00:00 25 13 Nordeste 29 Norte 0 943.1 -0.2 40
2019-05-25 18:00:00 25.4 16 Nordeste 30 Nordeste 0 943.1 -0.3 41
2019-05-25 17:00:00 24.6 15 Norte 33 Norte 0 943.2 -0.6 42
2019-05-25 16:00:00 24 14 Norte 51 Nordeste 0 943.3 -0.8 44
2019-05-25 15:00:00 23.6 15 Norte 28 Nordeste 0 943.4 -0.5 46
2019-05-25 14:00:00 23 10 Norte 22 Norte 0 943.8 0 50
2019-05-25 13:00:00 22.3 8 Nordeste 24 Norte 0 944.1 0.6 52
2019-05-25 12:00:00 20 9 Nordeste 31 Norte 0 943.9 1.3 55
2019-05-25 11:00:00 18.9 15 Norte 28 Nordeste 0 943.8 1.9 58
2019-05-25 10:00:00 18.1 9 Nordeste 20 Nordeste 0 943.5 1.8 61
2019-05-25 09:00:00 15.4 8 Nordeste 13 Nordeste 0 942.6 1.3 72
2019-05-25 08:00:00 19.1 0 Calma 7 Nordeste 0 941.9 0.9 71
2019-05-25 07:00:00 18.1 0 Calma 10 Este 0 941.7 0.7 73
2019-05-25 06:00:00 13.7 8 Nordeste 14 Nordeste 0 941.3 0 76
2019-05-25 05:00:00 13.4 11 Nordeste 15 Nordeste 0 941 -0.3 79
2019-05-25 04:00:00 17 2 Sudoeste 19 Nordeste 0 941 -0.6 74
2019-05-25 03:00:00 14.7 15 Nordeste 22 Nordeste 0 941.3 -0.2 73
2019-05-25 02:00:00 14.9 8 Nordeste 13 Nordeste 0 941.3 -0.1 69
2019-05-25 01:00:00 18.2 3 Nordeste 8 Norte 0 941.6 0.8 64
2019-05-25 00:00:00 17.2 6 Nordeste 9 Nordeste 0 941.5 1.3 62
2019-05-24 23:00:00 20.2 4 Norte 13 Nordeste 0 941.4 1.7 58
2019-05-24 22:00:00 19.8 5 Nordeste 25 Este 0 940.8 1.4 58
2019-05-24 21:00:00 21.5 11 Este 24 Nordeste 0 940.2 1.5 52
2019-05-24 20:00:00 23.2 12 Nordeste 24 Nordeste 0 939.7 0.5 50
2019-05-24 19:00:00 23 13 Nordeste 27 Nordeste 0 939.4 -0.4 50
2019-05-24 18:00:00 28.1 6 Oeste 24 Sudoeste 0 938.7 -1.5 40
2019-05-24 17:00:00 29.1 8 Sudoeste 24 Sudoeste 0 939.2 -1.5 40
2019-05-24 16:00:00 27 12 Sudoeste 26 Oeste 0 939.8 -1.3 39
2019-05-24 15:00:00 26.9 14 Sudoeste 25 Sudoeste 0 940.2 -1 42
2019-05-24 14:00:00 25.1 11 Sudoeste 23 Sudoeste 0 940.7 -0.4 45
2019-05-24 13:00:00 23.7 8 Sudoeste 20 Oeste 0 941.1 0.1 47
2019-05-24 12:00:00 23.9 5 Oeste 11 Sudoeste 0 941.2 0.1 49
2019-05-24 11:00:00 25.7 0 Calma 6 Noroeste 0 941.1 0 50
2019-05-24 10:00:00 22.9 0 Calma 8 Nordeste 0 941 0.3 53
2019-05-24 09:00:00 19.7 2 Nordeste 12 Sur 0 941.1 -0.3 53
2019-05-24 08:00:00 23.8 7 Sur 10 Sur 0 941.1 -0.5 49
2019-05-24 07:00:00 24 4 Sudoeste 10 Sudoeste 0 940.7 -1.5 49
2019-05-24 06:00:00 23.9 8 Sur 13 Sur 0 941.4 -0.8 49
2019-05-24 05:00:00 23.9 6 Sur 14 Sur 0 941.6 -1 48
2019-05-24 04:00:00 22.5 3 Sur 8 Sudoeste 0 942.2 -0.8 46
2019-05-24 03:00:00 23.3 0 Calma 8 Sudoeste 0 942.2 -0.7 46
2019-05-24 02:00:00 25.1 0 Calma 12 Sur 0 942.6 -0.2 44
2019-05-24 01:00:00 26.5 9 Sur 17 Sudoeste 0 943 0.4 40
2019-05-24 00:00:00 27.3 10 Sudoeste 16 Sur 0 942.9 0.2 40
2019-05-23 23:00:00 28.6 10 Sur 14 Sur 0 942.8 -0.1 40
2019-05-23 22:00:00 28.4 9 Sur 13 Sudoeste 0 942.6 -0.4 40
2019-05-23 21:00:00 29.7 9 Sudoeste 16 Sudoeste 0 942.7 -0.8 36
2019-05-23 20:00:00 31.9 9 Oeste 22 Oeste 0 942.9 -1 35
2019-05-23 19:00:00 31 11 Oeste 29 Oeste 0 943 -1.6 34
2019-05-23 18:00:00 30 13 Sudoeste 27 Sudoeste 0 943.5 -1.5 33
2019-05-23 17:00:00 30.4 10 Oeste 27 Oeste 0 943.9 -1.7 35
2019-05-23 16:00:00 30.3 8 Oeste 26 Oeste 0 944.6 -1.1 37
2019-05-23 15:00:00 29.6 10 Sudoeste 28 Sudoeste 0 945 -1 38
2019-05-23 14:00:00 30.2 7 Noroeste 16 Oeste 0 945.6 -0.7 40
2019-05-23 13:00:00 28.1 5 Oeste 17 Sudoeste 0 945.7 -0.7 45
2019-05-23 12:00:00 25.7 8 Oeste 22 Oeste 0 946 0.3 47
2019-05-23 11:00:00 24.9 10 Oeste 18 Oeste 0 946.3 1.3 49
2019-05-23 10:00:00 26 3 Sudoeste 11 Oeste 0 946.4 1.4 50
2019-05-23 09:00:00 20.1 0 Calma 7 Nordeste 0 945.7 0.6 57
2019-05-23 08:00:00 19.5 0 Calma 10 Sur 0 945 0 60
2019-05-23 07:00:00 22.4 7 Sur 13 Sudeste 0 945 0.2 52
2019-05-23 06:00:00 21 0 Calma 10 Sur 0 945.1 0 55
2019-05-23 05:00:00 19.9 0 Calma 10 Sudeste 0 945 -0.2 53
2019-05-23 04:00:00 20.6 0 Calma 7 Nordeste 0 944.8 -0.2 51
2019-05-23 03:00:00 18.6 3 Nordeste 9 Sur 0 945.1 0.4 50
2019-05-23 02:00:00 20.8 0 Calma -- -- 0 945.2 0.5 47
2019-05-23 01:00:00 20.9 0 Calma 4 Sudoeste 0 945 0.9 46
2019-05-23 00:00:00 22.2 3 Nordeste 6 Este 0 944.7 0.8 43
2019-05-22 23:00:00 22.8 0 Calma 9 Sur 0 944.7 1 39
2019-05-22 22:00:00 25.7 8 Sur 11 Sur 0 944.1 0.5 38
2019-05-22 21:00:00 28.5 0 Calma 14 Oeste 0 943.9 0 37
2019-05-22 20:00:00 31.5 3 Oeste 18 Oeste 0 943.7 -0.4 34
2019-05-22 19:00:00 29.8 5 Norte 19 Oeste 0 943.6 -0.7 33
2019-05-22 18:00:00 31.6 0 Calma 18 Noroeste 0 943.9 -0.9 35
2019-05-22 17:00:00 30 5 Norte 19 Oeste 0 944.1 -0.9 35
2019-05-22 16:00:00 29.2 9 Oeste 20 Oeste 0 944.3 -1 35
2019-05-22 15:00:00 28.4 0 Calma 15 Oeste 0 944.8 -0.7 37
2019-05-22 14:00:00 26.1 3 Nordeste 17 Oeste 0 945 -0.1 40
2019-05-22 13:00:00 25.4 3 Norte 18 Sudoeste 0 945.3 0.3 44
2019-05-22 12:00:00 24.3 8 Sudoeste 19 Sudoeste 0 945.5 1.3 50
2019-05-22 11:00:00 23.9 3 Oeste 10 Oeste 0 945.1 1.8 57
2019-05-22 10:00:00 23 0 Calma 7 Noroeste 0 945 1.9 61
2019-05-22 09:00:00 20.2 0 Calma 5 Norte 0 944.2 1.2 67
2019-05-22 08:00:00 17.6 0 Calma 6 Nordeste 0 943.3 0.2 73
2019-05-22 07:00:00 15.2 0 Calma -- -- 0 943.1 0 71
2019-05-22 06:00:00 15.1 0 Calma 5 Nordeste 0 943 -0.4 70
2019-05-22 05:00:00 18 0 Calma -- -- 0 943.1 -0.1 69
2019-05-22 04:00:00 16.7 0 Calma 8 Nordeste 0 943.1 0.1 67
2019-05-22 03:00:00 16.5 4 Nordeste 10 Sur 0 943.4 0.4 64
2019-05-22 02:00:00 19.2 0 Calma 9 Sur 0 943.2 0.4 67
2019-05-22 01:00:00 20.2 0 Calma 13 Sudoeste 0 943 0.6 65
2019-05-22 00:00:00 21.5 0 Calma 0 Calma 0 943 0.9 59